sensor_id;sensor_type;location;lat;lon;timestamp;P1;durP1;ratioP1;P2;durP2;ratioP2
22881;SDS011;11608;50.894;5.296;2023-03-04T00:01:10;61.37;;;43.20;;
22881;SDS011;11608;50.894;5.296;2023-03-04T00:03:36;57.83;;;44.47;;
22881;SDS011;11608;50.894;5.296;2023-03-04T00:06:02;57.17;;;42.23;;
22881;SDS011;11608;50.894;5.296;2023-03-04T00:08:29;54.53;;;42.13;;
22881;SDS011;11608;50.894;5.296;2023-03-04T00:10:55;52.00;;;41.57;;
22881;SDS011;11608;50.894;5.296;2023-03-04T00:13:21;59.70;;;43.80;;
22881;SDS011;11608;50.894;5.296;2023-03-04T00:15:48;55.23;;;42.77;;
22881;SDS011;11608;50.894;5.296;2023-03-04T00:18:14;55.63;;;42.23;;
22881;SDS011;11608;50.894;5.296;2023-03-04T00:20:40;53.80;;;44.33;;
22881;SDS011;11608;50.894;5.296;2023-03-04T00:23:06;64.30;;;45.27;;
22881;SDS011;11608;50.894;5.296;2023-03-04T00:25:32;55.10;;;45.17;;
22881;SDS011;11608;50.894;5.296;2023-03-04T00:27:58;57.40;;;42.30;;
22881;SDS011;11608;50.894;5.296;2023-03-04T00:30:25;58.30;;;44.60;;
22881;SDS011;11608;50.894;5.296;2023-03-04T00:32:51;58.20;;;41.43;;
22881;SDS011;11608;50.894;5.296;2023-03-04T00:35:17;61.17;;;43.70;;
22881;SDS011;11608;50.894;5.296;2023-03-04T00:37:43;57.93;;;43.80;;
22881;SDS011;11608;50.894;5.296;2023-03-04T00:40:09;54.97;;;42.60;;
22881;SDS011;11608;50.894;5.296;2023-03-04T00:42:35;60.40;;;43.90;;
22881;SDS011;11608;50.894;5.296;2023-03-04T00:45:02;63.37;;;47.17;;
22881;SDS011;11608;50.894;5.296;2023-03-04T00:47:28;62.57;;;45.50;;
22881;SDS011;11608;50.894;5.296;2023-03-04T00:49:54;62.10;;;46.30;;
22881;SDS011;11608;50.894;5.296;2023-03-04T00:52:20;59.33;;;45.30;;
22881;SDS011;11608;50.894;5.296;2023-03-04T00:54:46;54.30;;;44.13;;
22881;SDS011;11608;50.894;5.296;2023-03-04T00:57:12;55.57;;;43.87;;
22881;SDS011;11608;50.894;5.296;2023-03-04T00:59:38;60.43;;;44.93;;
22881;SDS011;11608;50.894;5.296;2023-03-04T01:02:05;60.93;;;44.87;;
22881;SDS011;11608;50.894;5.296;2023-03-04T01:04:31;58.33;;;43.70;;
22881;SDS011;11608;50.894;5.296;2023-03-04T01:06:57;62.53;;;44.50;;
22881;SDS011;11608;50.894;5.296;2023-03-04T01:09:23;59.57;;;43.90;;
22881;SDS011;11608;50.894;5.296;2023-03-04T01:11:50;57.07;;;43.63;;
22881;SDS011;11608;50.894;5.296;2023-03-04T01:14:16;56.20;;;43.30;;
22881;SDS011;11608;50.894;5.296;2023-03-04T01:16:43;54.70;;;44.63;;
22881;SDS011;11608;50.894;5.296;2023-03-04T01:19:09;57.90;;;45.73;;
22881;SDS011;11608;50.894;5.296;2023-03-04T01:21:35;55.63;;;44.63;;
22881;SDS011;11608;50.894;5.296;2023-03-04T01:24:00;60.30;;;43.00;;
22881;SDS011;11608;50.894;5.296;2023-03-04T01:26:26;54.07;;;43.80;;
22881;SDS011;11608;50.894;5.296;2023-03-04T01:28:52;54.30;;;41.67;;
22881;SDS011;11608;50.894;5.296;2023-03-04T01:31:18;53.23;;;42.00;;
22881;SDS011;11608;50.894;5.296;2023-03-04T01:33:45;54.73;;;41.47;;
22881;SDS011;11608;50.894;5.296;2023-03-04T01:36:11;53.93;;;42.03;;
22881;SDS011;11608;50.894;5.296;2023-03-04T01:38:37;54.90;;;42.17;;
22881;SDS011;11608;50.894;5.296;2023-03-04T01:41:03;58.20;;;44.40;;
22881;SDS011;11608;50.894;5.296;2023-03-04T01:43:29;53.33;;;42.37;;
22881;SDS011;11608;50.894;5.296;2023-03-04T01:45:55;57.10;;;46.03;;
22881;SDS011;11608;50.894;5.296;2023-03-04T01:48:26;49.50;;;40.93;;
22881;SDS011;11608;50.894;5.296;2023-03-04T01:50:53;53.27;;;41.37;;
22881;SDS011;11608;50.894;5.296;2023-03-04T01:53:21;53.10;;;41.57;;
22881;SDS011;11608;50.894;5.296;2023-03-04T01:55:48;54.17;;;41.47;;
22881;SDS011;11608;50.894;5.296;2023-03-04T01:58:14;56.90;;;43.47;;
22881;SDS011;11608;50.894;5.296;2023-03-04T02:00:40;53.43;;;41.73;;
22881;SDS011;11608;50.894;5.296;2023-03-04T02:03:08;51.03;;;41.57;;
22881;SDS011;11608;50.894;5.296;2023-03-04T02:05:36;46.30;;;40.60;;
22881;SDS011;11608;50.894;5.296;2023-03-04T02:08:02;55.20;;;41.93;;
22881;SDS011;11608;50.894;5.296;2023-03-04T02:10:29;53.70;;;44.00;;
22881;SDS011;11608;50.894;5.296;2023-03-04T02:12:55;50.57;;;41.77;;
22881;SDS011;11608;50.894;5.296;2023-03-04T02:15:22;49.93;;;40.83;;
22881;SDS011;11608;50.894;5.296;2023-03-04T02:17:48;53.43;;;41.47;;
22881;SDS011;11608;50.894;5.296;2023-03-04T02:20:20;53.30;;;40.80;;
22881;SDS011;11608;50.894;5.296;2023-03-04T02:22:51;52.30;;;41.90;;
22881;SDS011;11608;50.894;5.296;2023-03-04T02:25:21;51.77;;;42.77;;
22881;SDS011;11608;50.894;5.296;2023-03-04T02:27:48;57.03;;;43.13;;
22881;SDS011;11608;50.894;5.296;2023-03-04T02:30:14;54.30;;;43.03;;
22881;SDS011;11608;50.894;5.296;2023-03-04T02:32:40;52.67;;;42.77;;
22881;SDS011;11608;50.894;5.296;2023-03-04T02:35:08;53.97;;;44.10;;
22881;SDS011;11608;50.894;5.296;2023-03-04T02:37:38;52.40;;;41.13;;
22881;SDS011;11608;50.894;5.296;2023-03-04T02:40:05;50.00;;;40.83;;
22881;SDS011;11608;50.894;5.296;2023-03-04T02:42:31;52.87;;;41.90;;
22881;SDS011;11608;50.894;5.296;2023-03-04T02:45:00;48.13;;;40.57;;
22881;SDS011;11608;50.894;5.296;2023-03-04T02:47:26;51.77;;;41.37;;
22881;SDS011;11608;50.894;5.296;2023-03-04T02:49:52;50.93;;;41.53;;
22881;SDS011;11608;50.894;5.296;2023-03-04T02:52:19;48.30;;;39.77;;
22881;SDS011;11608;50.894;5.296;2023-03-04T02:54:46;55.70;;;43.70;;
22881;SDS011;11608;50.894;5.296;2023-03-04T02:57:12;48.43;;;40.43;;
22881;SDS011;11608;50.894;5.296;2023-03-04T02:59:39;51.93;;;40.80;;
22881;SDS011;11608;50.894;5.296;2023-03-04T03:02:05;53.10;;;42.97;;
22881;SDS011;11608;50.894;5.296;2023-03-04T03:04:32;47.50;;;40.97;;
22881;SDS011;11608;50.894;5.296;2023-03-04T03:06:58;51.57;;;40.70;;
22881;SDS011;11608;50.894;5.296;2023-03-04T03:09:24;50.90;;;39.10;;
22881;SDS011;11608;50.894;5.296;2023-03-04T03:11:50;47.43;;;38.80;;
22881;SDS011;11608;50.894;5.296;2023-03-04T03:14:16;48.70;;;39.07;;
22881;SDS011;11608;50.894;5.296;2023-03-04T03:16:42;49.50;;;40.33;;
22881;SDS011;11608;50.894;5.296;2023-03-04T03:19:08;50.47;;;41.20;;
22881;SDS011;11608;50.894;5.296;2023-03-04T03:21:34;49.70;;;38.97;;
22881;SDS011;11608;50.894;5.296;2023-03-04T03:24:00;44.00;;;39.10;;
22881;SDS011;11608;50.894;5.296;2023-03-04T03:26:26;52.03;;;41.40;;
22881;SDS011;11608;50.894;5.296;2023-03-04T03:28:52;50.20;;;41.33;;
22881;SDS011;11608;50.894;5.296;2023-03-04T03:31:18;50.20;;;41.87;;
22881;SDS011;11608;50.894;5.296;2023-03-04T03:33:44;51.30;;;40.23;;
22881;SDS011;11608;50.894;5.296;2023-03-04T03:36:10;49.27;;;38.40;;
22881;SDS011;11608;50.894;5.296;2023-03-04T03:38:36;48.10;;;39.50;;
22881;SDS011;11608;50.894;5.296;2023-03-04T03:41:02;50.63;;;40.03;;
22881;SDS011;11608;50.894;5.296;2023-03-04T03:43:29;53.43;;;42.53;;
22881;SDS011;11608;50.894;5.296;2023-03-04T03:45:55;48.60;;;40.27;;
22881;SDS011;11608;50.894;5.296;2023-03-04T03:48:21;49.17;;;42.53;;
22881;SDS011;11608;50.894;5.296;2023-03-04T03:50:47;46.00;;;40.20;;
22881;SDS011;11608;50.894;5.296;2023-03-04T03:53:13;45.60;;;38.50;;
22881;SDS011;11608;50.894;5.296;2023-03-04T03:55:39;46.53;;;37.70;;
22881;SDS011;11608;50.894;5.296;2023-03-04T03:58:05;45.23;;;36.87;;
22881;SDS011;11608;50.894;5.296;2023-03-04T04:00:31;45.73;;;38.30;;
22881;SDS011;11608;50.894;5.296;2023-03-04T04:02:57;44.67;;;36.67;;
22881;SDS011;11608;50.894;5.296;2023-03-04T04:05:24;41.50;;;37.20;;
22881;SDS011;11608;50.894;5.296;2023-03-04T04:07:50;47.83;;;37.83;;
22881;SDS011;11608;50.894;5.296;2023-03-04T04:10:16;42.40;;;38.03;;
22881;SDS011;11608;50.894;5.296;2023-03-04T04:12:43;42.97;;;35.20;;
22881;SDS011;11608;50.894;5.296;2023-03-04T04:15:12;43.07;;;35.00;;
22881;SDS011;11608;50.894;5.296;2023-03-04T04:17:38;39.20;;;34.57;;
22881;SDS011;11608;50.894;5.296;2023-03-04T04:20:05;43.43;;;34.27;;
22881;SDS011;11608;50.894;5.296;2023-03-04T04:22:31;35.57;;;31.63;;
22881;SDS011;11608;50.894;5.296;2023-03-04T04:24:57;36.43;;;31.90;;
22881;SDS011;11608;50.894;5.296;2023-03-04T04:27:23;36.10;;;32.40;;
22881;SDS011;11608;50.894;5.296;2023-03-04T04:29:49;34.00;;;30.40;;
22881;SDS011;11608;50.894;5.296;2023-03-04T04:32:15;35.30;;;29.93;;
22881;SDS011;11608;50.894;5.296;2023-03-04T04:34:42;35.53;;;31.13;;
22881;SDS011;11608;50.894;5.296;2023-03-04T04:37:08;36.43;;;30.67;;
22881;SDS011;11608;50.894;5.296;2023-03-04T04:39:34;36.70;;;30.77;;
22881;SDS011;11608;50.894;5.296;2023-03-04T04:42:00;35.67;;;31.50;;
22881;SDS011;11608;50.894;5.296;2023-03-04T04:44:26;38.97;;;31.30;;
22881;SDS011;11608;50.894;5.296;2023-03-04T04:46:52;36.00;;;31.70;;
22881;SDS011;11608;50.894;5.296;2023-03-04T04:49:18;33.87;;;30.20;;
22881;SDS011;11608;50.894;5.296;2023-03-04T04:51:44;35.33;;;31.97;;
22881;SDS011;11608;50.894;5.296;2023-03-04T04:54:10;34.50;;;31.17;;
22881;SDS011;11608;50.894;5.296;2023-03-04T04:56:38;32.53;;;28.92;;
22881;SDS011;11608;50.894;5.296;2023-03-04T04:59:05;31.57;;;25.83;;
22881;SDS011;11608;50.894;5.296;2023-03-04T05:01:33;30.30;;;26.17;;
22881;SDS011;11608;50.894;5.296;2023-03-04T05:04:01;33.67;;;26.97;;
22881;SDS011;11608;50.894;5.296;2023-03-04T05:06:27;29.43;;;25.80;;
22881;SDS011;11608;50.894;5.296;2023-03-04T05:08:54;29.23;;;26.10;;
22881;SDS011;11608;50.894;5.296;2023-03-04T05:11:20;30.20;;;25.50;;
22881;SDS011;11608;50.894;5.296;2023-03-04T05:13:46;29.87;;;25.93;;
22881;SDS011;11608;50.894;5.296;2023-03-04T05:16:13;29.40;;;26.73;;
22881;SDS011;11608;50.894;5.296;2023-03-04T05:18:39;29.43;;;26.47;;
22881;SDS011;11608;50.894;5.296;2023-03-04T05:21:05;27.83;;;24.90;;
22881;SDS011;11608;50.894;5.296;2023-03-04T05:23:34;26.73;;;23.90;;
22881;SDS011;11608;50.894;5.296;2023-03-04T05:26:00;29.57;;;23.57;;
22881;SDS011;11608;50.894;5.296;2023-03-04T05:28:26;28.30;;;25.40;;
22881;SDS011;11608;50.894;5.296;2023-03-04T05:30:53;28.00;;;25.20;;
22881;SDS011;11608;50.894;5.296;2023-03-04T05:33:19;29.77;;;27.03;;
22881;SDS011;11608;50.894;5.296;2023-03-04T05:35:45;28.83;;;26.15;;
22881;SDS011;11608;50.894;5.296;2023-03-04T05:38:13;28.38;;;24.90;;
22881;SDS011;11608;50.894;5.296;2023-03-04T05:40:39;26.73;;;24.23;;
22881;SDS011;11608;50.894;5.296;2023-03-04T05:43:06;27.23;;;24.63;;
22881;SDS011;11608;50.894;5.296;2023-03-04T05:45:32;25.90;;;23.33;;
22881;SDS011;11608;50.894;5.296;2023-03-04T05:47:58;27.95;;;24.95;;
22881;SDS011;11608;50.894;5.296;2023-03-04T05:50:24;27.20;;;24.70;;
22881;SDS011;11608;50.894;5.296;2023-03-04T05:52:51;30.37;;;26.40;;
22881;SDS011;11608;50.894;5.296;2023-03-04T05:55:17;30.80;;;27.37;;
22881;SDS011;11608;50.894;5.296;2023-03-04T05:57:43;28.10;;;25.20;;
22881;SDS011;11608;50.894;5.296;2023-03-04T06:00:10;29.23;;;25.23;;
22881;SDS011;11608;50.894;5.296;2023-03-04T06:02:37;26.57;;;24.07;;
22881;SDS011;11608;50.894;5.296;2023-03-04T06:05:03;28.98;;;25.92;;
22881;SDS011;11608;50.894;5.296;2023-03-04T06:07:30;28.77;;;25.25;;
22881;SDS011;11608;50.894;5.296;2023-03-04T06:09:56;29.52;;;26.45;;
22881;SDS011;11608;50.894;5.296;2023-03-04T06:12:22;32.03;;;23.83;;
22881;SDS011;11608;50.894;5.296;2023-03-04T06:14:48;26.67;;;24.13;;
22881;SDS011;11608;50.894;5.296;2023-03-04T06:17:14;26.02;;;23.17;;
22881;SDS011;11608;50.894;5.296;2023-03-04T06:19:40;29.27;;;23.85;;
22881;SDS011;11608;50.894;5.296;2023-03-04T06:22:07;28.10;;;24.23;;
22881;SDS011;11608;50.894;5.296;2023-03-04T06:24:33;28.67;;;25.65;;
22881;SDS011;11608;50.894;5.296;2023-03-04T06:26:59;28.02;;;25.48;;
22881;SDS011;11608;50.894;5.296;2023-03-04T06:29:28;29.00;;;24.27;;
22881;SDS011;11608;50.894;5.296;2023-03-04T06:31:54;27.25;;;24.42;;
22881;SDS011;11608;50.894;5.296;2023-03-04T06:34:20;26.58;;;23.75;;
22881;SDS011;11608;50.894;5.296;2023-03-04T06:36:51;28.45;;;25.40;;
22881;SDS011;11608;50.894;5.296;2023-03-04T06:39:17;29.90;;;24.05;;
22881;SDS011;11608;50.894;5.296;2023-03-04T06:41:43;26.88;;;24.02;;
22881;SDS011;11608;50.894;5.296;2023-03-04T06:44:10;26.90;;;23.75;;
22881;SDS011;11608;50.894;5.296;2023-03-04T06:46:36;28.67;;;23.40;;
22881;SDS011;11608;50.894;5.296;2023-03-04T06:49:02;24.88;;;22.50;;
22881;SDS011;11608;50.894;5.296;2023-03-04T06:51:28;27.00;;;24.30;;
22881;SDS011;11608;50.894;5.296;2023-03-04T06:53:54;25.73;;;23.25;;
22881;SDS011;11608;50.894;5.296;2023-03-04T06:56:20;25.75;;;23.33;;
22881;SDS011;11608;50.894;5.296;2023-03-04T06:58:46;27.10;;;24.10;;
22881;SDS011;11608;50.894;5.296;2023-03-04T07:01:14;27.33;;;24.55;;
22881;SDS011;11608;50.894;5.296;2023-03-04T07:03:40;27.27;;;24.67;;
22881;SDS011;11608;50.894;5.296;2023-03-04T07:06:08;26.48;;;23.83;;
22881;SDS011;11608;50.894;5.296;2023-03-04T07:08:34;26.23;;;23.42;;
22881;SDS011;11608;50.894;5.296;2023-03-04T07:11:00;25.90;;;23.10;;
22881;SDS011;11608;50.894;5.296;2023-03-04T07:13:26;26.25;;;23.80;;
22881;SDS011;11608;50.894;5.296;2023-03-04T07:15:52;25.55;;;23.27;;
22881;SDS011;11608;50.894;5.296;2023-03-04T07:18:18;25.98;;;23.45;;
22881;SDS011;11608;50.894;5.296;2023-03-04T07:20:45;30.15;;;23.73;;
22881;SDS011;11608;50.894;5.296;2023-03-04T07:23:11;29.05;;;23.23;;
22881;SDS011;11608;50.894;5.296;2023-03-04T07:25:37;25.77;;;23.05;;
22881;SDS011;11608;50.894;5.296;2023-03-04T07:28:03;25.88;;;23.35;;
22881;SDS011;11608;50.894;5.296;2023-03-04T07:30:29;26.60;;;23.08;;
22881;SDS011;11608;50.894;5.296;2023-03-04T07:32:58;25.13;;;22.40;;
22881;SDS011;11608;50.894;5.296;2023-03-04T07:35:24;25.80;;;23.08;;
22881;SDS011;11608;50.894;5.296;2023-03-04T07:37:50;25.30;;;22.50;;
22881;SDS011;11608;50.894;5.296;2023-03-04T07:40:16;25.02;;;22.38;;
22881;SDS011;11608;50.894;5.296;2023-03-04T07:42:42;25.95;;;23.05;;
22881;SDS011;11608;50.894;5.296;2023-03-04T07:45:09;24.60;;;22.10;;
22881;SDS011;11608;50.894;5.296;2023-03-04T07:47:35;24.98;;;22.52;;
22881;SDS011;11608;50.894;5.296;2023-03-04T07:50:01;25.10;;;22.20;;
22881;SDS011;11608;50.894;5.296;2023-03-04T07:52:27;23.90;;;21.42;;
22881;SDS011;11608;50.894;5.296;2023-03-04T07:54:53;24.15;;;21.85;;
22881;SDS011;11608;50.894;5.296;2023-03-04T07:57:19;22.88;;;20.80;;
22881;SDS011;11608;50.894;5.296;2023-03-04T07:59:45;23.50;;;21.00;;
22881;SDS011;11608;50.894;5.296;2023-03-04T08:02:11;24.00;;;21.65;;
22881;SDS011;11608;50.894;5.296;2023-03-04T08:04:37;23.70;;;21.33;;
22881;SDS011;11608;50.894;5.296;2023-03-04T08:07:03;24.48;;;21.98;;
22881;SDS011;11608;50.894;5.296;2023-03-04T08:09:29;23.77;;;21.42;;
22881;SDS011;11608;50.894;5.296;2023-03-04T08:11:55;24.20;;;21.80;;
22881;SDS011;11608;50.894;5.296;2023-03-04T08:14:21;24.48;;;22.25;;
22881;SDS011;11608;50.894;5.296;2023-03-04T08:16:47;23.63;;;21.48;;
22881;SDS011;11608;50.894;5.296;2023-03-04T08:19:13;24.33;;;21.92;;
22881;SDS011;11608;50.894;5.296;2023-03-04T08:21:39;25.17;;;21.67;;
22881;SDS011;11608;50.894;5.296;2023-03-04T08:24:05;24.15;;;21.80;;
22881;SDS011;11608;50.894;5.296;2023-03-04T08:26:40;23.83;;;21.40;;
22881;SDS011;11608;50.894;5.296;2023-03-04T08:29:06;24.15;;;21.70;;
22881;SDS011;11608;50.894;5.296;2023-03-04T08:31:33;24.15;;;21.67;;
22881;SDS011;11608;50.894;5.296;2023-03-04T08:33:59;24.02;;;21.63;;
22881;SDS011;11608;50.894;5.296;2023-03-04T08:36:25;23.90;;;21.60;;
22881;SDS011;11608;50.894;5.296;2023-03-04T08:38:51;23.70;;;21.27;;
22881;SDS011;11608;50.894;5.296;2023-03-04T08:41:17;23.77;;;21.52;;
22881;SDS011;11608;50.894;5.296;2023-03-04T08:43:44;24.00;;;21.80;;
22881;SDS011;11608;50.894;5.296;2023-03-04T08:46:10;23.10;;;21.17;;
22881;SDS011;11608;50.894;5.296;2023-03-04T08:48:36;24.02;;;21.88;;
22881;SDS011;11608;50.894;5.296;2023-03-04T08:51:06;23.55;;;21.75;;
22881;SDS011;11608;50.894;5.296;2023-03-04T08:53:32;23.92;;;21.70;;
22881;SDS011;11608;50.894;5.296;2023-03-04T08:55:58;23.30;;;21.42;;
22881;SDS011;11608;50.894;5.296;2023-03-04T08:58:25;24.55;;;22.42;;
22881;SDS011;11608;50.894;5.296;2023-03-04T09:00:51;24.20;;;22.08;;
22881;SDS011;11608;50.894;5.296;2023-03-04T09:03:17;23.13;;;21.50;;
22881;SDS011;11608;50.894;5.296;2023-03-04T09:05:44;24.35;;;22.40;;
22881;SDS011;11608;50.894;5.296;2023-03-04T09:08:11;24.58;;;22.63;;
22881;SDS011;11608;50.894;5.296;2023-03-04T09:10:37;24.90;;;22.88;;
22881;SDS011;11608;50.894;5.296;2023-03-04T09:13:03;24.27;;;22.13;;
22881;SDS011;11608;50.894;5.296;2023-03-04T09:15:30;24.52;;;22.23;;
22881;SDS011;11608;50.894;5.296;2023-03-04T09:18:00;24.50;;;22.20;;
22881;SDS011;11608;50.894;5.296;2023-03-04T09:20:27;24.17;;;21.90;;
22881;SDS011;11608;50.894;5.296;2023-03-04T09:22:53;22.45;;;20.83;;
22881;SDS011;11608;50.894;5.296;2023-03-04T09:25:19;23.70;;;21.60;;
22881;SDS011;11608;50.894;5.296;2023-03-04T09:27:45;23.60;;;21.42;;
22881;SDS011;11608;50.894;5.296;2023-03-04T09:30:11;23.60;;;21.55;;
22881;SDS011;11608;50.894;5.296;2023-03-04T09:32:37;22.60;;;20.88;;
22881;SDS011;11608;50.894;5.296;2023-03-04T09:35:05;23.27;;;21.20;;
22881;SDS011;11608;50.894;5.296;2023-03-04T09:37:31;22.95;;;21.08;;
22881;SDS011;11608;50.894;5.296;2023-03-04T09:39:57;21.83;;;20.13;;
22881;SDS011;11608;50.894;5.296;2023-03-04T09:42:24;23.13;;;21.15;;
22881;SDS011;11608;50.894;5.296;2023-03-04T09:44:50;22.38;;;20.50;;
22881;SDS011;11608;50.894;5.296;2023-03-04T09:47:18;21.25;;;19.70;;
22881;SDS011;11608;50.894;5.296;2023-03-04T09:49:53;21.58;;;19.80;;
22881;SDS011;11608;50.894;5.296;2023-03-04T09:55:03;23.30;;;21.50;;
22881;SDS011;11608;50.894;5.296;2023-03-04T10:00:34;24.40;;;22.40;;
22881;SDS011;11608;50.894;5.296;2023-03-04T10:05:27;23.23;;;21.70;;
22881;SDS011;11608;50.894;5.296;2023-03-04T10:07:57;25.75;;;23.30;;
22881;SDS011;11608;50.894;5.296;2023-03-04T10:10:24;24.48;;;22.63;;
22881;SDS011;11608;50.894;5.296;2023-03-04T10:12:52;24.63;;;22.38;;
22881;SDS011;11608;50.894;5.296;2023-03-04T10:15:30;24.88;;;23.00;;
22881;SDS011;11608;50.894;5.296;2023-03-04T10:18:11;24.50;;;22.70;;
22881;SDS011;11608;50.894;5.296;2023-03-04T10:20:48;24.27;;;22.38;;
22881;SDS011;11608;50.894;5.296;2023-03-04T10:23:25;24.02;;;22.08;;
22881;SDS011;11608;50.894;5.296;2023-03-04T10:25:52;24.55;;;22.30;;
22881;SDS011;11608;50.894;5.296;2023-03-04T10:28:25;23.73;;;22.02;;
22881;SDS011;11608;50.894;5.296;2023-03-04T10:31:02;24.33;;;22.45;;
22881;SDS011;11608;50.894;5.296;2023-03-04T10:33:31;24.15;;;22.10;;
22881;SDS011;11608;50.894;5.296;2023-03-04T10:36:10;25.15;;;22.65;;
22881;SDS011;11608;50.894;5.296;2023-03-04T10:38:39;23.92;;;22.17;;
22881;SDS011;11608;50.894;5.296;2023-03-04T10:41:22;26.42;;;24.30;;
22881;SDS011;11608;50.894;5.296;2023-03-04T10:44:03;25.88;;;23.83;;
22881;SDS011;11608;50.894;5.296;2023-03-04T10:46:30;25.58;;;23.67;;
22881;SDS011;11608;50.894;5.296;2023-03-04T10:48:56;26.02;;;23.92;;
22881;SDS011;11608;50.894;5.296;2023-03-04T10:51:26;25.80;;;23.50;;
22881;SDS011;11608;50.894;5.296;2023-03-04T10:53:57;24.50;;;22.50;;
22881;SDS011;11608;50.894;5.296;2023-03-04T11:01:44;24.00;;;22.00;;
22881;SDS011;11608;50.894;5.296;2023-03-04T11:04:16;24.17;;;21.92;;
22881;SDS011;11608;50.894;5.296;2023-03-04T11:06:46;22.23;;;20.33;;
22881;SDS011;11608;50.894;5.296;2023-03-04T11:09:28;22.30;;;20.48;;
22881;SDS011;11608;50.894;5.296;2023-03-04T11:11:55;22.25;;;20.10;;
22881;SDS011;11608;50.894;5.296;2023-03-04T11:14:24;21.23;;;19.60;;
22881;SDS011;11608;50.894;5.296;2023-03-04T11:17:00;22.20;;;20.15;;
22881;SDS011;11608;50.894;5.296;2023-03-04T11:19:38;22.90;;;21.02;;
22881;SDS011;11608;50.894;5.296;2023-03-04T11:22:06;22.52;;;20.70;;
22881;SDS011;11608;50.894;5.296;2023-03-04T11:24:35;22.33;;;20.52;;
22881;SDS011;11608;50.894;5.296;2023-03-04T11:27:03;22.73;;;20.73;;
22881;SDS011;11608;50.894;5.296;2023-03-04T11:35:12;23.73;;;21.73;;
22881;SDS011;11608;50.894;5.296;2023-03-04T11:37:31;24.88;;;22.67;;
22881;SDS011;11608;50.894;5.296;2023-03-04T11:40:03;23.95;;;22.15;;
22881;SDS011;11608;50.894;5.296;2023-03-04T11:44:57;24.52;;;22.20;;
22881;SDS011;11608;50.894;5.296;2023-03-04T11:50:01;24.67;;;22.65;;
22881;SDS011;11608;50.894;5.296;2023-03-04T12:08:22;24.70;;;22.58;;
22881;SDS011;11608;50.894;5.296;2023-03-04T12:16:09;23.70;;;21.70;;
22881;SDS011;11608;50.894;5.296;2023-03-04T12:21:33;24.70;;;22.23;;
22881;SDS011;11608;50.894;5.296;2023-03-04T12:24:17;24.08;;;21.80;;
22881;SDS011;11608;50.894;5.296;2023-03-04T12:29:34;23.40;;;21.30;;
22881;SDS011;11608;50.894;5.296;2023-03-04T12:32:10;24.92;;;22.52;;
22881;SDS011;11608;50.894;5.296;2023-03-04T12:34:55;24.95;;;22.58;;
22881;SDS011;11608;50.894;5.296;2023-03-04T12:37:28;25.67;;;23.48;;
22881;SDS011;11608;50.894;5.296;2023-03-04T12:42:43;25.55;;;23.10;;
22881;SDS011;11608;50.894;5.296;2023-03-04T12:45:24;27.35;;;24.55;;
22881;SDS011;11608;50.894;5.296;2023-03-04T12:48:01;25.27;;;23.20;;
22881;SDS011;11608;50.894;5.296;2023-03-04T12:55:43;25.30;;;23.17;;
22881;SDS011;11608;50.894;5.296;2023-03-04T12:58:14;24.80;;;22.85;;
22881;SDS011;11608;50.894;5.296;2023-03-04T13:05:44;24.98;;;22.83;;
22881;SDS011;11608;50.894;5.296;2023-03-04T13:11:31;24.80;;;22.75;;
22881;SDS011;11608;50.894;5.296;2023-03-04T13:16:35;25.73;;;23.55;;
22881;SDS011;11608;50.894;5.296;2023-03-04T13:19:39;24.88;;;22.98;;
22881;SDS011;11608;50.894;5.296;2023-03-04T13:21:49;25.85;;;23.25;;
22881;SDS011;11608;50.894;5.296;2023-03-04T13:27:43;25.38;;;23.48;;
22881;SDS011;11608;50.894;5.296;2023-03-04T13:29:49;24.35;;;22.40;;
22881;SDS011;11608;50.894;5.296;2023-03-04T13:32:24;24.23;;;22.42;;
22881;SDS011;11608;50.894;5.296;2023-03-04T13:34:59;24.67;;;22.77;;
22881;SDS011;11608;50.894;5.296;2023-03-04T13:42:41;25.17;;;23.27;;
22881;SDS011;11608;50.894;5.296;2023-03-04T13:48:22;24.60;;;22.67;;
22881;SDS011;11608;50.894;5.296;2023-03-04T13:50:48;24.55;;;22.42;;
22881;SDS011;11608;50.894;5.296;2023-03-04T13:53:32;23.90;;;22.10;;
22881;SDS011;11608;50.894;5.296;2023-03-04T13:56:24;25.48;;;23.35;;
22881;SDS011;11608;50.894;5.296;2023-03-04T14:01:34;25.35;;;23.45;;
22881;SDS011;11608;50.894;5.296;2023-03-04T14:04:08;24.35;;;22.33;;
22881;SDS011;11608;50.894;5.296;2023-03-04T14:06:39;24.77;;;22.58;;
22881;SDS011;11608;50.894;5.296;2023-03-04T14:09:11;24.60;;;22.65;;
22881;SDS011;11608;50.894;5.296;2023-03-04T14:11:39;25.02;;;23.02;;
22881;SDS011;11608;50.894;5.296;2023-03-04T14:14:07;25.20;;;22.90;;
22881;SDS011;11608;50.894;5.296;2023-03-04T14:16:37;24.38;;;22.30;;
22881;SDS011;11608;50.894;5.296;2023-03-04T14:19:05;24.70;;;22.63;;
22881;SDS011;11608;50.894;5.296;2023-03-04T14:21:32;24.23;;;22.20;;
22881;SDS011;11608;50.894;5.296;2023-03-04T14:26:29;30.67;;;24.70;;
22881;SDS011;11608;50.894;5.296;2023-03-04T14:28:57;25.48;;;23.13;;
22881;SDS011;11608;50.894;5.296;2023-03-04T14:31:24;25.45;;;23.17;;
22881;SDS011;11608;50.894;5.296;2023-03-04T14:33:53;24.98;;;22.88;;
22881;SDS011;11608;50.894;5.296;2023-03-04T14:36:32;24.73;;;22.48;;
22881;SDS011;11608;50.894;5.296;2023-03-04T14:38:59;25.23;;;23.23;;
22881;SDS011;11608;50.894;5.296;2023-03-04T14:41:36;25.10;;;22.85;;
22881;SDS011;11608;50.894;5.296;2023-03-04T14:47:16;25.15;;;22.83;;
22881;SDS011;11608;50.894;5.296;2023-03-04T14:49:36;25.17;;;23.20;;
22881;SDS011;11608;50.894;5.296;2023-03-04T14:52:03;25.08;;;22.75;;
22881;SDS011;11608;50.894;5.296;2023-03-04T14:54:37;24.75;;;22.50;;
22881;SDS011;11608;50.894;5.296;2023-03-04T14:57:22;23.60;;;21.80;;
22881;SDS011;11608;50.894;5.296;2023-03-04T14:59:50;23.73;;;21.50;;
22881;SDS011;11608;50.894;5.296;2023-03-04T15:02:27;23.50;;;21.40;;
22881;SDS011;11608;50.894;5.296;2023-03-04T15:05:07;23.77;;;21.92;;
22881;SDS011;11608;50.894;5.296;2023-03-04T15:07:34;25.02;;;22.80;;
22881;SDS011;11608;50.894;5.296;2023-03-04T15:10:02;25.48;;;23.10;;
22881;SDS011;11608;50.894;5.296;2023-03-04T15:12:29;24.77;;;22.58;;
22881;SDS011;11608;50.894;5.296;2023-03-04T15:14:57;24.13;;;22.15;;
22881;SDS011;11608;50.894;5.296;2023-03-04T15:20:00;24.67;;;22.50;;
22881;SDS011;11608;50.894;5.296;2023-03-04T15:22:26;24.90;;;22.75;;
22881;SDS011;11608;50.894;5.296;2023-03-04T15:24:52;25.27;;;23.27;;
22881;SDS011;11608;50.894;5.296;2023-03-04T15:27:18;25.17;;;23.00;;
22881;SDS011;11608;50.894;5.296;2023-03-04T15:29:45;24.67;;;22.77;;
22881;SDS011;11608;50.894;5.296;2023-03-04T15:32:11;25.00;;;22.95;;
22881;SDS011;11608;50.894;5.296;2023-03-04T15:34:38;25.35;;;23.15;;
22881;SDS011;11608;50.894;5.296;2023-03-04T15:37:04;25.00;;;22.95;;
22881;SDS011;11608;50.894;5.296;2023-03-04T15:39:31;24.77;;;22.77;;
22881;SDS011;11608;50.894;5.296;2023-03-04T15:41:57;25.70;;;23.45;;
22881;SDS011;11608;50.894;5.296;2023-03-04T15:44:23;25.08;;;23.08;;
22881;SDS011;11608;50.894;5.296;2023-03-04T15:46:49;25.55;;;23.33;;
22881;SDS011;11608;50.894;5.296;2023-03-04T15:49:15;24.58;;;22.85;;
22881;SDS011;11608;50.894;5.296;2023-03-04T15:51:41;25.20;;;23.20;;
22881;SDS011;11608;50.894;5.296;2023-03-04T15:54:09;24.95;;;22.95;;
22881;SDS011;11608;50.894;5.296;2023-03-04T15:56:37;25.45;;;23.45;;